sensor_id;sensor_type;location;lat;lon;timestamp;P1;durP1;ratioP1;P2;durP2;ratioP2
20245;SDS011;10281;54.406;18.556;2023-04-24T00:01:12;20.83;;;18.57;;
20245;SDS011;10281;54.406;18.556;2023-04-24T00:03:38;22.80;;;20.37;;
20245;SDS011;10281;54.406;18.556;2023-04-24T00:06:05;22.00;;;18.20;;
20245;SDS011;10281;54.406;18.556;2023-04-24T00:08:35;21.00;;;17.70;;
20245;SDS011;10281;54.406;18.556;2023-04-24T00:11:02;21.50;;;18.93;;
20245;SDS011;10281;54.406;18.556;2023-04-24T00:13:28;22.43;;;18.77;;
20245;SDS011;10281;54.406;18.556;2023-04-24T00:15:55;21.93;;;19.43;;
20245;SDS011;10281;54.406;18.556;2023-04-24T00:18:22;22.63;;;18.97;;
20245;SDS011;10281;54.406;18.556;2023-04-24T00:20:49;23.00;;;20.07;;
20245;SDS011;10281;54.406;18.556;2023-04-24T00:23:15;24.00;;;20.90;;
20245;SDS011;10281;54.406;18.556;2023-04-24T00:25:42;24.93;;;21.90;;
20245;SDS011;10281;54.406;18.556;2023-04-24T00:28:09;26.60;;;22.30;;
20245;SDS011;10281;54.406;18.556;2023-04-24T00:30:35;26.87;;;22.67;;
20245;SDS011;10281;54.406;18.556;2023-04-24T00:33:02;27.23;;;23.87;;
20245;SDS011;10281;54.406;18.556;2023-04-24T00:35:29;27.57;;;24.57;;
20245;SDS011;10281;54.406;18.556;2023-04-24T00:37:55;33.40;;;27.60;;
20245;SDS011;10281;54.406;18.556;2023-04-24T00:40:22;28.83;;;24.33;;
20245;SDS011;10281;54.406;18.556;2023-04-24T00:42:48;28.73;;;24.87;;
20245;SDS011;10281;54.406;18.556;2023-04-24T00:45:15;31.20;;;24.23;;
20245;SDS011;10281;54.406;18.556;2023-04-24T00:47:42;30.63;;;24.40;;
20245;SDS011;10281;54.406;18.556;2023-04-24T00:50:09;29.10;;;23.90;;
20245;SDS011;10281;54.406;18.556;2023-04-24T00:52:38;29.90;;;24.77;;
20245;SDS011;10281;54.406;18.556;2023-04-24T00:55:06;28.13;;;23.57;;
20245;SDS011;10281;54.406;18.556;2023-04-24T00:57:33;30.63;;;24.47;;
20245;SDS011;10281;54.406;18.556;2023-04-24T01:00:01;30.50;;;25.07;;
20245;SDS011;10281;54.406;18.556;2023-04-24T01:02:29;30.00;;;25.13;;
20245;SDS011;10281;54.406;18.556;2023-04-24T01:04:56;28.50;;;22.87;;
20245;SDS011;10281;54.406;18.556;2023-04-24T01:07:22;28.93;;;22.83;;
20245;SDS011;10281;54.406;18.556;2023-04-24T01:09:50;26.67;;;21.83;;
20245;SDS011;10281;54.406;18.556;2023-04-24T01:12:17;29.40;;;23.50;;
20245;SDS011;10281;54.406;18.556;2023-04-24T01:14:45;27.43;;;24.13;;
20245;SDS011;10281;54.406;18.556;2023-04-24T01:17:11;30.20;;;23.33;;
20245;SDS011;10281;54.406;18.556;2023-04-24T01:19:38;27.70;;;23.47;;
20245;SDS011;10281;54.406;18.556;2023-04-24T01:22:09;27.40;;;22.00;;
20245;SDS011;10281;54.406;18.556;2023-04-24T01:24:37;27.10;;;22.20;;
20245;SDS011;10281;54.406;18.556;2023-04-24T01:27:05;26.97;;;21.57;;
20245;SDS011;10281;54.406;18.556;2023-04-24T01:29:32;25.47;;;21.07;;
20245;SDS011;10281;54.406;18.556;2023-04-24T01:31:59;28.93;;;21.77;;
20245;SDS011;10281;54.406;18.556;2023-04-24T01:34:27;30.10;;;22.80;;
20245;SDS011;10281;54.406;18.556;2023-04-24T01:36:53;32.17;;;24.27;;
20245;SDS011;10281;54.406;18.556;2023-04-24T01:39:22;32.60;;;24.53;;
20245;SDS011;10281;54.406;18.556;2023-04-24T01:41:51;30.43;;;22.67;;
20245;SDS011;10281;54.406;18.556;2023-04-24T01:44:19;30.07;;;22.83;;
20245;SDS011;10281;54.406;18.556;2023-04-24T01:46:45;28.47;;;23.43;;
20245;SDS011;10281;54.406;18.556;2023-04-24T01:49:12;29.50;;;21.90;;
20245;SDS011;10281;54.406;18.556;2023-04-24T01:51:39;29.73;;;21.70;;
20245;SDS011;10281;54.406;18.556;2023-04-24T01:54:06;28.20;;;20.83;;
20245;SDS011;10281;54.406;18.556;2023-04-24T01:56:33;28.57;;;20.37;;
20245;SDS011;10281;54.406;18.556;2023-04-24T01:59:02;26.97;;;20.57;;
20245;SDS011;10281;54.406;18.556;2023-04-24T02:01:34;26.60;;;19.90;;
20245;SDS011;10281;54.406;18.556;2023-04-24T02:04:08;29.47;;;21.20;;
20245;SDS011;10281;54.406;18.556;2023-04-24T02:06:34;28.83;;;21.33;;
20245;SDS011;10281;54.406;18.556;2023-04-24T02:09:01;30.67;;;22.90;;
20245;SDS011;10281;54.406;18.556;2023-04-24T02:11:29;30.07;;;22.17;;
20245;SDS011;10281;54.406;18.556;2023-04-24T02:13:56;30.63;;;23.07;;
20245;SDS011;10281;54.406;18.556;2023-04-24T02:16:22;30.57;;;22.80;;
20245;SDS011;10281;54.406;18.556;2023-04-24T02:18:49;27.97;;;21.63;;
20245;SDS011;10281;54.406;18.556;2023-04-24T02:21:16;29.27;;;22.10;;
20245;SDS011;10281;54.406;18.556;2023-04-24T02:23:42;29.13;;;21.73;;
20245;SDS011;10281;54.406;18.556;2023-04-24T02:26:09;30.27;;;22.90;;
20245;SDS011;10281;54.406;18.556;2023-04-24T02:28:36;28.27;;;21.57;;
20245;SDS011;10281;54.406;18.556;2023-04-24T02:31:03;34.57;;;22.37;;
20245;SDS011;10281;54.406;18.556;2023-04-24T02:33:30;29.53;;;20.80;;
20245;SDS011;10281;54.406;18.556;2023-04-24T02:35:57;29.93;;;20.97;;
20245;SDS011;10281;54.406;18.556;2023-04-24T02:38:23;32.43;;;22.63;;
20245;SDS011;10281;54.406;18.556;2023-04-24T02:40:50;29.20;;;21.80;;
20245;SDS011;10281;54.406;18.556;2023-04-24T02:43:17;29.93;;;21.23;;
20245;SDS011;10281;54.406;18.556;2023-04-24T02:45:44;31.90;;;20.93;;
20245;SDS011;10281;54.406;18.556;2023-04-24T02:48:11;30.00;;;20.93;;
20245;SDS011;10281;54.406;18.556;2023-04-24T02:50:37;29.03;;;20.40;;
20245;SDS011;10281;54.406;18.556;2023-04-24T02:53:04;29.90;;;20.37;;
20245;SDS011;10281;54.406;18.556;2023-04-24T02:55:31;29.57;;;20.07;;
20245;SDS011;10281;54.406;18.556;2023-04-24T02:57:57;28.97;;;20.23;;
20245;SDS011;10281;54.406;18.556;2023-04-24T03:00:24;24.97;;;18.90;;
20245;SDS011;10281;54.406;18.556;2023-04-24T03:02:51;24.03;;;18.67;;
20245;SDS011;10281;54.406;18.556;2023-04-24T03:05:18;29.83;;;19.80;;
20245;SDS011;10281;54.406;18.556;2023-04-24T03:07:45;29.37;;;18.33;;
20245;SDS011;10281;54.406;18.556;2023-04-24T03:10:11;30.17;;;19.87;;
20245;SDS011;10281;54.406;18.556;2023-04-24T03:12:38;30.13;;;19.43;;
20245;SDS011;10281;54.406;18.556;2023-04-24T03:15:05;31.30;;;19.93;;
20245;SDS011;10281;54.406;18.556;2023-04-24T03:17:32;26.73;;;19.37;;
20245;SDS011;10281;54.406;18.556;2023-04-24T03:19:59;31.77;;;18.83;;
20245;SDS011;10281;54.406;18.556;2023-04-24T03:22:26;28.20;;;18.97;;
20245;SDS011;10281;54.406;18.556;2023-04-24T03:24:52;29.83;;;19.77;;
20245;SDS011;10281;54.406;18.556;2023-04-24T03:27:20;32.00;;;20.53;;
20245;SDS011;10281;54.406;18.556;2023-04-24T03:29:47;30.50;;;19.70;;
20245;SDS011;10281;54.406;18.556;2023-04-24T03:32:13;33.13;;;19.30;;
20245;SDS011;10281;54.406;18.556;2023-04-24T03:34:40;31.77;;;20.97;;
20245;SDS011;10281;54.406;18.556;2023-04-24T03:37:07;32.73;;;20.53;;
20245;SDS011;10281;54.406;18.556;2023-04-24T03:39:33;33.73;;;20.07;;
20245;SDS011;10281;54.406;18.556;2023-04-24T03:42:00;30.70;;;19.17;;
20245;SDS011;10281;54.406;18.556;2023-04-24T03:44:26;30.97;;;19.37;;
20245;SDS011;10281;54.406;18.556;2023-04-24T03:46:53;31.43;;;19.47;;
20245;SDS011;10281;54.406;18.556;2023-04-24T03:49:20;30.17;;;19.33;;
20245;SDS011;10281;54.406;18.556;2023-04-24T03:51:47;35.77;;;18.47;;
20245;SDS011;10281;54.406;18.556;2023-04-24T03:54:14;30.27;;;18.23;;
20245;SDS011;10281;54.406;18.556;2023-04-24T03:56:40;30.13;;;18.30;;
20245;SDS011;10281;54.406;18.556;2023-04-24T03:59:07;24.20;;;18.13;;
20245;SDS011;10281;54.406;18.556;2023-04-24T04:01:34;26.40;;;18.03;;
20245;SDS011;10281;54.406;18.556;2023-04-24T04:04:03;27.37;;;17.83;;
20245;SDS011;10281;54.406;18.556;2023-04-24T04:06:30;24.53;;;16.60;;
20245;SDS011;10281;54.406;18.556;2023-04-24T04:08:57;29.10;;;16.90;;
20245;SDS011;10281;54.406;18.556;2023-04-24T04:11:24;24.30;;;16.77;;
20245;SDS011;10281;54.406;18.556;2023-04-24T04:13:51;24.50;;;16.67;;
20245;SDS011;10281;54.406;18.556;2023-04-24T04:16:18;22.93;;;15.60;;
20245;SDS011;10281;54.406;18.556;2023-04-24T04:18:44;23.70;;;17.37;;
20245;SDS011;10281;54.406;18.556;2023-04-24T04:21:11;24.90;;;16.53;;
20245;SDS011;10281;54.406;18.556;2023-04-24T04:23:38;23.40;;;16.40;;
20245;SDS011;10281;54.406;18.556;2023-04-24T04:26:05;20.63;;;16.03;;
20245;SDS011;10281;54.406;18.556;2023-04-24T04:28:33;26.93;;;16.63;;
20245;SDS011;10281;54.406;18.556;2023-04-24T04:31:00;23.83;;;16.40;;
20245;SDS011;10281;54.406;18.556;2023-04-24T04:33:27;25.23;;;16.40;;
20245;SDS011;10281;54.406;18.556;2023-04-24T04:35:54;24.60;;;16.03;;
20245;SDS011;10281;54.406;18.556;2023-04-24T04:38:22;24.73;;;16.57;;
20245;SDS011;10281;54.406;18.556;2023-04-24T04:40:49;23.17;;;16.57;;
20245;SDS011;10281;54.406;18.556;2023-04-24T04:43:15;25.60;;;16.30;;
20245;SDS011;10281;54.406;18.556;2023-04-24T04:45:42;25.97;;;16.77;;
20245;SDS011;10281;54.406;18.556;2023-04-24T04:48:09;25.03;;;16.60;;
20245;SDS011;10281;54.406;18.556;2023-04-24T04:50:38;25.57;;;16.90;;
20245;SDS011;10281;54.406;18.556;2023-04-24T04:53:04;25.60;;;17.90;;
20245;SDS011;10281;54.406;18.556;2023-04-24T04:55:32;25.20;;;18.20;;
20245;SDS011;10281;54.406;18.556;2023-04-24T04:57:58;25.53;;;17.67;;
20245;SDS011;10281;54.406;18.556;2023-04-24T05:00:26;27.87;;;17.97;;
20245;SDS011;10281;54.406;18.556;2023-04-24T05:02:54;28.03;;;18.40;;
20245;SDS011;10281;54.406;18.556;2023-04-24T05:05:21;24.93;;;18.00;;
20245;SDS011;10281;54.406;18.556;2023-04-24T05:07:48;26.57;;;17.77;;
20245;SDS011;10281;54.406;18.556;2023-04-24T05:10:14;25.53;;;17.80;;
20245;SDS011;10281;54.406;18.556;2023-04-24T05:12:41;25.20;;;17.57;;
20245;SDS011;10281;54.406;18.556;2023-04-24T05:15:08;25.63;;;18.07;;
20245;SDS011;10281;54.406;18.556;2023-04-24T05:17:35;28.33;;;17.20;;
20245;SDS011;10281;54.406;18.556;2023-04-24T05:20:03;25.83;;;17.47;;
20245;SDS011;10281;54.406;18.556;2023-04-24T05:22:31;28.03;;;17.80;;
20245;SDS011;10281;54.406;18.556;2023-04-24T05:24:58;27.07;;;18.80;;
20245;SDS011;10281;54.406;18.556;2023-04-24T05:27:24;21.57;;;17.23;;
20245;SDS011;10281;54.406;18.556;2023-04-24T05:29:51;28.77;;;19.17;;
20245;SDS011;10281;54.406;18.556;2023-04-24T05:32:18;23.53;;;18.33;;
20245;SDS011;10281;54.406;18.556;2023-04-24T05:34:44;23.83;;;18.30;;
20245;SDS011;10281;54.406;18.556;2023-04-24T05:37:12;25.10;;;19.00;;
20245;SDS011;10281;54.406;18.556;2023-04-24T05:39:38;25.80;;;18.67;;
20245;SDS011;10281;54.406;18.556;2023-04-24T05:42:06;25.47;;;19.20;;
20245;SDS011;10281;54.406;18.556;2023-04-24T05:44:33;25.73;;;18.87;;
20245;SDS011;10281;54.406;18.556;2023-04-24T05:47:00;28.13;;;19.03;;
20245;SDS011;10281;54.406;18.556;2023-04-24T05:49:27;29.83;;;19.43;;
20245;SDS011;10281;54.406;18.556;2023-04-24T05:51:54;29.60;;;19.07;;
20245;SDS011;10281;54.406;18.556;2023-04-24T05:54:20;30.43;;;18.70;;
20245;SDS011;10281;54.406;18.556;2023-04-24T05:56:47;31.73;;;19.47;;
20245;SDS011;10281;54.406;18.556;2023-04-24T05:59:15;27.10;;;18.57;;
20245;SDS011;10281;54.406;18.556;2023-04-24T06:01:41;32.07;;;19.80;;
20245;SDS011;10281;54.406;18.556;2023-04-24T06:04:08;27.37;;;18.80;;
20245;SDS011;10281;54.406;18.556;2023-04-24T06:06:35;29.53;;;19.03;;
20245;SDS011;10281;54.406;18.556;2023-04-24T06:09:01;26.33;;;18.37;;
20245;SDS011;10281;54.406;18.556;2023-04-24T06:11:28;26.67;;;18.37;;
20245;SDS011;10281;54.406;18.556;2023-04-24T06:13:55;22.87;;;15.63;;
20245;SDS011;10281;54.406;18.556;2023-04-24T06:16:22;27.57;;;16.00;;
20245;SDS011;10281;54.406;18.556;2023-04-24T06:18:49;23.27;;;14.27;;
20245;SDS011;10281;54.406;18.556;2023-04-24T06:21:16;18.87;;;12.20;;
20245;SDS011;10281;54.406;18.556;2023-04-24T06:23:43;18.83;;;12.13;;
20245;SDS011;10281;54.406;18.556;2023-04-24T06:26:11;17.47;;;11.63;;
20245;SDS011;10281;54.406;18.556;2023-04-24T06:28:38;20.10;;;12.17;;
20245;SDS011;10281;54.406;18.556;2023-04-24T06:31:05;16.10;;;12.33;;
20245;SDS011;10281;54.406;18.556;2023-04-24T06:33:31;20.07;;;13.43;;
20245;SDS011;10281;54.406;18.556;2023-04-24T06:35:58;19.40;;;13.67;;
20245;SDS011;10281;54.406;18.556;2023-04-24T06:38:24;18.37;;;12.17;;
20245;SDS011;10281;54.406;18.556;2023-04-24T06:40:51;18.17;;;13.03;;
20245;SDS011;10281;54.406;18.556;2023-04-24T06:43:18;16.70;;;12.27;;
20245;SDS011;10281;54.406;18.556;2023-04-24T06:45:45;18.93;;;12.63;;
20245;SDS011;10281;54.406;18.556;2023-04-24T06:48:12;17.27;;;12.27;;
20245;SDS011;10281;54.406;18.556;2023-04-24T06:50:39;17.00;;;12.53;;
20245;SDS011;10281;54.406;18.556;2023-04-24T06:53:05;19.77;;;13.47;;
20245;SDS011;10281;54.406;18.556;2023-04-24T06:55:32;18.93;;;13.20;;
20245;SDS011;10281;54.406;18.556;2023-04-24T06:57:59;19.97;;;13.93;;
20245;SDS011;10281;54.406;18.556;2023-04-24T07:00:25;23.17;;;14.13;;
20245;SDS011;10281;54.406;18.556;2023-04-24T07:02:52;23.53;;;14.20;;
20245;SDS011;10281;54.406;18.556;2023-04-24T07:05:19;14.93;;;10.97;;
20245;SDS011;10281;54.406;18.556;2023-04-24T07:07:47;15.63;;;10.30;;
20245;SDS011;10281;54.406;18.556;2023-04-24T07:10:14;17.17;;;10.67;;
20245;SDS011;10281;54.406;18.556;2023-04-24T07:12:41;15.40;;;11.13;;
20245;SDS011;10281;54.406;18.556;2023-04-24T07:15:08;17.50;;;11.47;;
20245;SDS011;10281;54.406;18.556;2023-04-24T07:17:36;15.50;;;11.17;;
20245;SDS011;10281;54.406;18.556;2023-04-24T07:20:04;38.17;;;23.10;;
20245;SDS011;10281;54.406;18.556;2023-04-24T07:22:33;13.53;;;9.33;;
20245;SDS011;10281;54.406;18.556;2023-04-24T07:24:59;13.97;;;9.97;;
20245;SDS011;10281;54.406;18.556;2023-04-24T07:27:26;14.30;;;9.77;;
20245;SDS011;10281;54.406;18.556;2023-04-24T07:29:53;12.77;;;10.17;;
20245;SDS011;10281;54.406;18.556;2023-04-24T07:32:20;14.90;;;11.20;;
20245;SDS011;10281;54.406;18.556;2023-04-24T07:34:46;17.70;;;12.67;;
20245;SDS011;10281;54.406;18.556;2023-04-24T07:37:13;17.27;;;12.33;;
20245;SDS011;10281;54.406;18.556;2023-04-24T07:39:39;15.40;;;10.83;;
20245;SDS011;10281;54.406;18.556;2023-04-24T07:42:07;14.33;;;10.00;;
20245;SDS011;10281;54.406;18.556;2023-04-24T07:44:33;14.60;;;10.13;;
20245;SDS011;10281;54.406;18.556;2023-04-24T07:47:01;13.00;;;9.30;;
20245;SDS011;10281;54.406;18.556;2023-04-24T07:49:28;12.97;;;8.90;;
20245;SDS011;10281;54.406;18.556;2023-04-24T07:51:55;12.47;;;9.83;;
20245;SDS011;10281;54.406;18.556;2023-04-24T07:54:21;13.07;;;10.07;;
20245;SDS011;10281;54.406;18.556;2023-04-24T07:56:48;12.53;;;10.03;;
20245;SDS011;10281;54.406;18.556;2023-04-24T07:59:15;12.73;;;10.10;;
20245;SDS011;10281;54.406;18.556;2023-04-24T08:01:42;15.27;;;10.50;;
20245;SDS011;10281;54.406;18.556;2023-04-24T08:04:08;13.37;;;10.40;;
20245;SDS011;10281;54.406;18.556;2023-04-24T08:06:35;14.00;;;10.83;;
20245;SDS011;10281;54.406;18.556;2023-04-24T08:09:02;15.50;;;10.27;;
20245;SDS011;10281;54.406;18.556;2023-04-24T08:11:29;14.93;;;11.53;;
20245;SDS011;10281;54.406;18.556;2023-04-24T08:13:56;17.33;;;12.00;;
20245;SDS011;10281;54.406;18.556;2023-04-24T08:16:22;12.60;;;10.43;;
20245;SDS011;10281;54.406;18.556;2023-04-24T08:18:50;11.47;;;10.27;;
20245;SDS011;10281;54.406;18.556;2023-04-24T08:21:17;13.93;;;10.87;;
20245;SDS011;10281;54.406;18.556;2023-04-24T08:23:44;14.77;;;11.20;;
20245;SDS011;10281;54.406;18.556;2023-04-24T08:26:12;17.13;;;10.73;;
20245;SDS011;10281;54.406;18.556;2023-04-24T08:28:39;14.50;;;12.47;;
20245;SDS011;10281;54.406;18.556;2023-04-24T08:31:05;15.80;;;12.87;;
20245;SDS011;10281;54.406;18.556;2023-04-24T08:33:32;15.37;;;12.00;;
20245;SDS011;10281;54.406;18.556;2023-04-24T08:36:01;18.97;;;13.53;;
20245;SDS011;10281;54.406;18.556;2023-04-24T08:38:30;20.27;;;12.73;;
20245;SDS011;10281;54.406;18.556;2023-04-24T08:40:58;18.03;;;14.03;;
20245;SDS011;10281;54.406;18.556;2023-04-24T08:43:26;17.77;;;13.70;;
20245;SDS011;10281;54.406;18.556;2023-04-24T08:45:55;20.00;;;14.90;;
20245;SDS011;10281;54.406;18.556;2023-04-24T08:48:22;21.03;;;15.73;;
20245;SDS011;10281;54.406;18.556;2023-04-24T08:50:50;18.97;;;15.50;;
20245;SDS011;10281;54.406;18.556;2023-04-24T08:53:17;20.53;;;16.73;;
20245;SDS011;10281;54.406;18.556;2023-04-24T08:55:46;19.23;;;16.37;;
20245;SDS011;10281;54.406;18.556;2023-04-24T08:58:15;21.43;;;17.53;;
20245;SDS011;10281;54.406;18.556;2023-04-24T09:00:43;24.10;;;17.70;;
20245;SDS011;10281;54.406;18.556;2023-04-24T09:03:13;21.27;;;17.23;;
20245;SDS011;10281;54.406;18.556;2023-04-24T09:05:43;24.33;;;18.37;;
20245;SDS011;10281;54.406;18.556;2023-04-24T09:08:13;19.73;;;17.33;;
20245;SDS011;10281;54.406;18.556;2023-04-24T09:10:42;24.50;;;18.80;;
20245;SDS011;10281;54.406;18.556;2023-04-24T09:13:09;25.63;;;19.27;;
20245;SDS011;10281;54.406;18.556;2023-04-24T09:15:36;27.43;;;20.33;;
20245;SDS011;10281;54.406;18.556;2023-04-24T09:18:04;24.70;;;21.50;;
20245;SDS011;10281;54.406;18.556;2023-04-24T09:20:32;24.80;;;20.40;;
20245;SDS011;10281;54.406;18.556;2023-04-24T09:23:01;24.73;;;20.60;;
20245;SDS011;10281;54.406;18.556;2023-04-24T09:25:31;22.60;;;18.57;;
20245;SDS011;10281;54.406;18.556;2023-04-24T09:28:00;28.23;;;20.47;;
20245;SDS011;10281;54.406;18.556;2023-04-24T09:30:28;25.23;;;21.37;;
20245;SDS011;10281;54.406;18.556;2023-04-24T09:35:39;23.70;;;19.03;;
20245;SDS011;10281;54.406;18.556;2023-04-24T09:38:11;24.67;;;15.77;;
20245;SDS011;10281;54.406;18.556;2023-04-24T09:40:38;20.90;;;14.27;;
20245;SDS011;10281;54.406;18.556;2023-04-24T09:43:09;16.97;;;14.47;;
20245;SDS011;10281;54.406;18.556;2023-04-24T09:45:37;17.80;;;12.63;;
20245;SDS011;10281;54.406;18.556;2023-04-24T09:48:05;17.00;;;13.00;;
20245;SDS011;10281;54.406;18.556;2023-04-24T09:50:35;13.93;;;11.83;;
20245;SDS011;10281;54.406;18.556;2023-04-24T09:53:02;15.47;;;12.30;;
20245;SDS011;10281;54.406;18.556;2023-04-24T09:55:31;12.70;;;11.40;;
20245;SDS011;10281;54.406;18.556;2023-04-24T09:57:58;13.40;;;12.00;;
20245;SDS011;10281;54.406;18.556;2023-04-24T10:00:28;14.17;;;12.50;;
20245;SDS011;10281;54.406;18.556;2023-04-24T10:02:56;17.50;;;15.27;;
20245;SDS011;10281;54.406;18.556;2023-04-24T10:05:29;17.37;;;14.50;;
20245;SDS011;10281;54.406;18.556;2023-04-24T10:08:00;16.00;;;14.23;;
20245;SDS011;10281;54.406;18.556;2023-04-24T10:10:29;18.10;;;14.67;;
20245;SDS011;10281;54.406;18.556;2023-04-24T10:12:56;17.43;;;14.90;;
20245;SDS011;10281;54.406;18.556;2023-04-24T10:15:23;23.10;;;18.27;;
20245;SDS011;10281;54.406;18.556;2023-04-24T10:17:51;21.60;;;16.27;;
20245;SDS011;10281;54.406;18.556;2023-04-24T10:20:19;18.97;;;16.10;;
20245;SDS011;10281;54.406;18.556;2023-04-24T10:22:48;17.77;;;15.67;;
20245;SDS011;10281;54.406;18.556;2023-04-24T10:25:16;18.67;;;15.30;;
20245;SDS011;10281;54.406;18.556;2023-04-24T10:27:45;16.23;;;14.63;;
20245;SDS011;10281;54.406;18.556;2023-04-24T10:30:13;18.70;;;14.93;;
20245;SDS011;10281;54.406;18.556;2023-04-24T10:32:40;17.73;;;14.33;;
20245;SDS011;10281;54.406;18.556;2023-04-24T10:35:08;15.57;;;13.87;;
20245;SDS011;10281;54.406;18.556;2023-04-24T10:37:37;16.77;;;14.07;;
20245;SDS011;10281;54.406;18.556;2023-04-24T10:40:10;15.20;;;13.70;;
20245;SDS011;10281;54.406;18.556;2023-04-24T10:42:40;17.03;;;15.23;;
20245;SDS011;10281;54.406;18.556;2023-04-24T10:45:23;15.87;;;14.23;;
20245;SDS011;10281;54.406;18.556;2023-04-24T10:48:06;15.93;;;14.23;;
20245;SDS011;10281;54.406;18.556;2023-04-24T10:50:42;18.87;;;13.70;;
20245;SDS011;10281;54.406;18.556;2023-04-24T10:53:15;15.40;;;13.63;;
20245;SDS011;10281;54.406;18.556;2023-04-24T10:55:46;15.13;;;13.23;;
20245;SDS011;10281;54.406;18.556;2023-04-24T10:58:14;17.63;;;13.03;;
20245;SDS011;10281;54.406;18.556;2023-04-24T11:00:42;16.90;;;13.90;;
20245;SDS011;10281;54.406;18.556;2023-04-24T11:05:51;14.77;;;13.27;;
20245;SDS011;10281;54.406;18.556;2023-04-24T11:08:27;14.47;;;12.80;;
20245;SDS011;10281;54.406;18.556;2023-04-24T11:10:56;13.67;;;12.13;;
20245;SDS011;10281;54.406;18.556;2023-04-24T11:14:00;12.93;;;11.53;;
20245;SDS011;10281;54.406;18.556;2023-04-24T11:16:12;13.03;;;10.80;;
20245;SDS011;10281;54.406;18.556;2023-04-24T11:18:43;13.43;;;11.23;;
20245;SDS011;10281;54.406;18.556;2023-04-24T11:21:12;13.17;;;11.67;;
20245;SDS011;10281;54.406;18.556;2023-04-24T11:23:39;13.47;;;11.00;;
20245;SDS011;10281;54.406;18.556;2023-04-24T11:26:10;12.80;;;11.50;;
20245;SDS011;10281;54.406;18.556;2023-04-24T11:28:44;11.93;;;9.63;;
20245;SDS011;10281;54.406;18.556;2023-04-24T11:33:49;13.40;;;10.90;;
20245;SDS011;10281;54.406;18.556;2023-04-24T11:36:16;13.67;;;11.43;;
20245;SDS011;10281;54.406;18.556;2023-04-24T11:38:42;13.63;;;10.70;;
20245;SDS011;10281;54.406;18.556;2023-04-24T11:41:09;13.80;;;11.37;;
20245;SDS011;10281;54.406;18.556;2023-04-24T11:43:37;16.27;;;12.13;;
20245;SDS011;10281;54.406;18.556;2023-04-24T11:46:04;14.07;;;10.83;;
20245;SDS011;10281;54.406;18.556;2023-04-24T11:48:34;14.57;;;10.83;;
20245;SDS011;10281;54.406;18.556;2023-04-24T11:51:03;13.17;;;11.20;;
20245;SDS011;10281;54.406;18.556;2023-04-24T11:53:30;11.77;;;10.57;;
20245;SDS011;10281;54.406;18.556;2023-04-24T11:55:56;15.27;;;11.00;;
20245;SDS011;10281;54.406;18.556;2023-04-24T11:58:25;13.03;;;11.57;;
20245;SDS011;10281;54.406;18.556;2023-04-24T12:00:56;13.87;;;11.73;;
20245;SDS011;10281;54.406;18.556;2023-04-24T12:03:25;12.07;;;10.13;;
20245;SDS011;10281;54.406;18.556;2023-04-24T12:05:51;12.77;;;9.93;;
20245;SDS011;10281;54.406;18.556;2023-04-24T12:10:53;8.50;;;7.57;;
20245;SDS011;10281;54.406;18.556;2023-04-24T12:13:20;7.47;;;6.67;;
20245;SDS011;10281;54.406;18.556;2023-04-24T12:15:47;6.17;;;5.50;;
20245;SDS011;10281;54.406;18.556;2023-04-24T12:18:16;6.10;;;5.50;;
20245;SDS011;10281;54.406;18.556;2023-04-24T12:20:43;6.00;;;5.40;;
20245;SDS011;10281;54.406;18.556;2023-04-24T12:23:09;5.37;;;4.70;;
20245;SDS011;10281;54.406;18.556;2023-04-24T12:25:38;6.23;;;4.90;;
20245;SDS011;10281;54.406;18.556;2023-04-24T12:28:10;5.97;;;4.57;;
20245;SDS011;10281;54.406;18.556;2023-04-24T12:30:40;8.53;;;4.83;;
20245;SDS011;10281;54.406;18.556;2023-04-24T12:33:10;4.90;;;4.37;;
20245;SDS011;10281;54.406;18.556;2023-04-24T12:35:37;6.17;;;4.73;;
20245;SDS011;10281;54.406;18.556;2023-04-24T12:38:07;4.43;;;4.00;;
20245;SDS011;10281;54.406;18.556;2023-04-24T12:40:38;5.63;;;4.00;;
20245;SDS011;10281;54.406;18.556;2023-04-24T12:45:41;4.53;;;3.90;;
20245;SDS011;10281;54.406;18.556;2023-04-24T12:48:07;4.97;;;4.27;;
20245;SDS011;10281;54.406;18.556;2023-04-24T12:50:34;5.53;;;3.57;;
20245;SDS011;10281;54.406;18.556;2023-04-24T12:53:01;4.80;;;3.70;;
20245;SDS011;10281;54.406;18.556;2023-04-24T12:55:28;4.63;;;3.53;;
20245;SDS011;10281;54.406;18.556;2023-04-24T12:57:54;4.37;;;3.83;;
20245;SDS011;10281;54.406;18.556;2023-04-24T13:00:21;6.70;;;3.70;;
20245;SDS011;10281;54.406;18.556;2023-04-24T13:02:48;11.23;;;4.00;;
20245;SDS011;10281;54.406;18.556;2023-04-24T13:05:15;6.20;;;4.17;;
20245;SDS011;10281;54.406;18.556;2023-04-24T13:07:42;4.13;;;3.70;;
20245;SDS011;10281;54.406;18.556;2023-04-24T13:10:09;6.00;;;3.67;;
20245;SDS011;10281;54.406;18.556;2023-04-24T13:12:36;4.13;;;3.73;;
20245;SDS011;10281;54.406;18.556;2023-04-24T13:15:04;4.03;;;3.40;;
20245;SDS011;10281;54.406;18.556;2023-04-24T13:17:32;4.03;;;3.50;;
20245;SDS011;10281;54.406;18.556;2023-04-24T13:19:58;4.63;;;3.60;;
20245;SDS011;10281;54.406;18.556;2023-04-24T13:22:25;4.90;;;3.70;;
20245;SDS011;10281;54.406;18.556;2023-04-24T13:24:52;3.90;;;3.50;;
20245;SDS011;10281;54.406;18.556;2023-04-24T13:27:19;3.37;;;3.00;;
20245;SDS011;10281;54.406;18.556;2023-04-24T13:29:46;4.63;;;3.57;;
20245;SDS011;10281;54.406;18.556;2023-04-24T13:32:12;5.00;;;3.70;;
20245;SDS011;10281;54.406;18.556;2023-04-24T13:34:39;4.00;;;3.60;;
20245;SDS011;10281;54.406;18.556;2023-04-24T13:37:06;4.30;;;3.30;;
20245;SDS011;10281;54.406;18.556;2023-04-24T13:39:33;3.83;;;3.50;;
20245;SDS011;10281;54.406;18.556;2023-04-24T13:42:00;4.37;;;3.70;;
20245;SDS011;10281;54.406;18.556;2023-04-24T13:44:27;4.77;;;3.60;;
20245;SDS011;10281;54.406;18.556;2023-04-24T13:46:54;4.33;;;3.33;;
20245;SDS011;10281;54.406;18.556;2023-04-24T13:49:22;5.53;;;3.53;;
20245;SDS011;10281;54.406;18.556;2023-04-24T13:51:51;6.03;;;3.70;;
20245;SDS011;10281;54.406;18.556;2023-04-24T13:54:18;5.97;;;3.40;;
20245;SDS011;10281;54.406;18.556;2023-04-24T13:56:45;6.67;;;3.40;;
20245;SDS011;10281;54.406;18.556;2023-04-24T13:59:12;8.90;;;3.53;;
20245;SDS011;10281;54.406;18.556;2023-04-24T14:01:39;4.23;;;3.40;;
20245;SDS011;10281;54.406;18.556;2023-04-24T14:04:05;4.70;;;3.67;;
20245;SDS011;10281;54.406;18.556;2023-04-24T14:06:32;6.97;;;3.97;;
20245;SDS011;10281;54.406;18.556;2023-04-24T14:08:59;5.13;;;3.77;;
20245;SDS011;10281;54.406;18.556;2023-04-24T14:11:26;4.10;;;3.40;;
20245;SDS011;10281;54.406;18.556;2023-04-24T14:13:53;6.13;;;3.87;;
20245;SDS011;10281;54.406;18.556;2023-04-24T14:16:22;8.10;;;3.70;;
20245;SDS011;10281;54.406;18.556;2023-04-24T14:18:48;4.80;;;3.63;;
20245;SDS011;10281;54.406;18.556;2023-04-24T14:21:15;5.40;;;3.80;;
20245;SDS011;10281;54.406;18.556;2023-04-24T14:23:42;6.43;;;3.57;;
20245;SDS011;10281;54.406;18.556;2023-04-24T14:26:09;6.33;;;3.50;;
20245;SDS011;10281;54.406;18.556;2023-04-24T14:28:36;5.50;;;4.00;;